Time;durP1;ratioP1;P1;durP2;ratioP2;P2;SDS_P1;SDS_P2;PMS_P1;PMS_P2;Temp;Humidity;BMP_temperature;BMP_pressure;BME280_temperature;BME280_humidity;BME280_pressure;Samples;Min_cycle;Max_cycle;Signal;HPM_P1;HPM_P2
2022/06/22 00:02:05;;;;;;;;;17.75;17.00;;;;;-147.17;100.00;-15917.19;5000466;28;51405;-68
2022/06/22 00:04:45;;;;;;;;;21.25;20.00;;;;;-147.17;100.00;-15917.19;5012909;28;52319;-68
2022/06/22 00:07:38;;;;;;;;;17.00;17.00;;;;;-147.17;100.00;-15917.19;5009791;28;51308;-67
2022/06/22 00:10:16;;;;;;;;;16.50;15.75;;;;;-147.17;100.00;-15917.19;5008744;28;51287;-68
2022/06/22 00:12:46;;;;;;;;;16.00;15.33;;;;;-147.17;100.00;-15917.19;5005875;28;51393;-68
2022/06/22 00:15:23;;;;;;;;;19.00;17.25;;;;;-147.17;100.00;-15917.19;5024268;28;52986;-69
2022/06/22 00:17:48;;;;;;;;;13.50;13.00;;;;;-147.17;100.00;-15917.19;5004683;28;51237;-68
2022/06/22 00:20:27;;;;;;;;;17.00;16.25;;;;;-147.17;100.00;-15917.19;5016846;28;50943;-67
2022/06/22 00:22:57;;;;;;;;;23.00;21.50;;;;;-147.17;100.00;-15917.19;5009254;28;51360;-66
2022/06/22 00:25:31;;;;;;;;;18.75;18.75;;;;;-147.17;100.00;-15917.19;5006537;28;51868;-66
2022/06/22 00:28:29;;;;;;;;;18.00;17.25;;;;;-147.17;100.00;-15917.19;5006635;28;51443;-67
2022/06/22 00:31:03;;;;;;;;;22.00;21.00;;;;;-147.17;100.00;-15917.19;5012886;28;51279;-67
2022/06/22 00:33:29;;;;;;;;;17.33;16.00;;;;;-147.17;100.00;-15917.19;4997507;28;51361;-67
2022/06/22 00:36:12;;;;;;;;;16.25;16.25;;;;;-147.17;100.00;-15917.19;4999610;28;50979;-67
2022/06/22 00:38:39;;;;;;;;;19.00;16.00;;;;;-147.17;100.00;-15917.19;5006170;28;51333;-67
2022/06/22 00:41:37;;;;;;;;;16.75;14.75;;;;;-147.17;100.00;-15917.19;4997964;28;52709;-67
2022/06/22 00:44:07;;;;;;;;;18.75;18.75;;;;;-147.17;100.00;-15917.19;4987351;28;51286;-67
2022/06/22 00:46:33;;;;;;;;;17.75;17.50;;;;;-147.17;100.00;-15917.19;5007755;28;51977;-66
2022/06/22 00:49:09;;;;;;;;;19.50;18.00;;;;;-147.17;100.00;-15917.19;5009391;28;50914;-67
2022/06/22 00:51:39;;;;;;;;;19.25;16.75;;;;;-147.17;100.00;-15917.19;5003675;28;51182;-68
2022/06/22 00:54:09;;;;;;;;;20.25;20.00;;;;;-147.17;100.00;-15917.19;5007915;28;51365;-66
2022/06/22 00:56:53;;;;;;;;;16.33;16.00;;;;;-147.17;100.00;-15917.19;5002611;28;50996;-67
2022/06/22 00:59:23;;;;;;;;;15.00;15.00;;;;;-147.17;100.00;-15917.19;5009696;28;51094;-67
2022/06/22 01:01:51;;;;;;;;;15.33;15.33;;;;;-147.17;100.00;-15917.19;5007560;28;51145;-67
2022/06/22 01:04:43;;;;;;;;;16.67;15.67;;;;;-147.17;100.00;-15917.19;5005242;28;52442;-66
2022/06/22 01:07:24;;;;;;;;;18.25;15.50;;;;;-147.17;100.00;-15917.19;5001513;28;52014;-66
2022/06/22 01:10:11;;;;;;;;;17.75;17.50;;;;;-147.17;100.00;-15917.19;5004854;28;50901;-66
2022/06/22 01:12:48;;;;;;;;;19.25;18.00;;;;;-147.17;100.00;-15917.19;4999474;28;51141;-67
2022/06/22 01:15:30;;;;;;;;;17.75;17.25;;;;;-147.17;100.00;-15917.19;5009736;28;51271;-67
2022/06/22 01:18:22;;;;;;;;;15.50;15.50;;;;;-147.17;100.00;-15917.19;5004314;28;52002;-67
2022/06/22 01:20:50;;;;;;;;;20.75;19.50;;;;;-147.17;100.00;-15917.19;5001819;28;51057;-67
2022/06/22 01:23:29;;;;;;;;;19.25;18.25;;;;;-147.17;100.00;-15917.19;4995936;28;51055;-67
2022/06/22 01:26:04;;;;;;;;;6.50;5.75;;;;;-147.17;100.00;-15917.19;5006112;28;51009;-67
2022/06/22 01:28:30;;;;;;;;;15.25;15.25;;;;;-147.17;100.00;-15917.19;5007477;28;51833;-67
2022/06/22 01:31:11;;;;;;;;;18.00;18.00;;;;;-147.17;100.00;-15917.19;5007339;28;51181;-67
2022/06/22 01:33:41;;;;;;;;;17.25;17.00;;;;;-147.17;100.00;-15917.19;5011564;28;51164;-67
2022/06/22 01:36:22;;;;;;;;;24.25;24.00;;;;;-147.17;100.00;-15917.19;5006960;28;51392;-67
2022/06/22 01:38:48;;;;;;;;;17.75;17.75;;;;;-147.17;100.00;-15917.19;4999981;28;51931;-67
2022/06/22 01:41:46;;;;;;;;;20.75;20.75;;;;;-147.17;100.00;-15917.19;5011573;28;51404;-67
2022/06/22 01:44:20;;;;;;;;;16.75;15.75;;;;;-147.17;100.00;-15917.19;5008613;28;51266;-66
2022/06/22 01:46:52;;;;;;;;;20.00;18.25;;;;;-147.17;100.00;-15917.19;5002414;28;51364;-66
2022/06/22 01:49:41;;;;;;;;;19.00;18.00;;;;;-147.17;100.00;-15917.19;5002299;28;51899;-67
2022/06/22 01:52:14;;;;;;;;;20.25;19.50;;;;;-147.17;100.00;-15917.19;5011016;28;51217;-67
2022/06/22 01:54:51;;;;;;;;;17.00;17.00;;;;;-147.17;100.00;-15917.19;5010317;28;51149;-68
2022/06/22 01:57:30;;;;;;;;;18.00;17.00;;;;;-147.17;100.00;-15917.19;5005207;28;51099;-67
2022/06/22 02:00:04;;;;;;;;;18.00;17.25;;;;;-147.17;100.00;-15917.19;5005389;28;52064;-67
2022/06/22 02:02:37;;;;;;;;;19.67;18.00;;;;;-147.17;100.00;-15917.19;5014187;28;51389;-67
2022/06/22 02:05:12;;;;;;;;;17.00;17.00;;;;;-147.17;100.00;-15917.19;5011371;28;50966;-66
2022/06/22 02:07:45;;;;;;;;;20.00;19.00;;;;;-147.17;100.00;-15917.19;5007066;28;50887;-66
2022/06/22 02:10:23;;;;;;;;;18.33;16.00;;;;;-147.17;100.00;-15917.19;5005222;28;51660;-67
2022/06/22 02:12:58;;;;;;;;;19.75;18.75;;;;;-147.17;100.00;-15917.19;5012353;28;51064;-67
2022/06/22 02:15:38;;;;;;;;;19.25;18.50;;;;;-147.17;100.00;-15917.19;5010185;28;51208;-67
2022/06/22 02:18:09;;;;;;;;;20.25;18.75;;;;;-147.17;100.00;-15917.19;5014160;28;51238;-67
2022/06/22 02:20:37;;;;;;;;;19.25;18.25;;;;;-147.17;100.00;-15917.19;5007198;28;52161;-67
2022/06/22 02:23:10;;;;;;;;;19.00;19.00;;;;;-147.17;100.00;-15917.19;5009608;28;51136;-67
2022/06/22 02:25:41;;;;;;;;;20.00;18.75;;;;;-147.17;100.00;-15917.19;5013806;28;51258;-67
2022/06/22 02:28:06;;;;;;;;;18.50;18.00;;;;;-147.17;100.00;-15917.19;5006383;28;51329;-68
2022/06/22 02:30:32;;;;;;;;;20.50;20.00;;;;;-147.17;100.00;-15917.19;5010646;28;51848;-67
2022/06/22 02:32:58;;;;;;;;;19.50;19.00;;;;;-147.17;100.00;-15917.19;5009297;28;51169;-67
2022/06/22 02:35:23;;;;;;;;;20.00;19.75;;;;;-147.17;100.00;-15917.19;5006225;28;51691;-67
2022/06/22 02:37:53;;;;;;;;;17.00;16.00;;;;;-147.17;100.00;-15917.19;5005048;28;51170;-67
2022/06/22 02:40:24;;;;;;;;;18.00;18.00;;;;;-147.17;100.00;-15917.19;5006585;28;54144;-67
2022/06/22 02:45:35;;;;;;;;;17.25;16.75;;;;;-147.17;100.00;-15917.19;5012180;28;50898;-67
2022/06/22 02:48:20;;;;;;;;;21.75;20.75;;;;;-147.17;100.00;-15917.19;5008252;28;50874;-68
2022/06/22 02:51:30;;;;;;;;;22.25;21.00;;;;;-147.17;100.00;-15917.19;5010793;28;51193;-67
2022/06/22 02:53:58;;;;;;;;;23.75;21.25;;;;;-147.17;100.00;-15917.19;5001260;28;51186;-67
2022/06/22 02:56:33;;;;;;;;;21.50;20.25;;;;;-147.17;100.00;-15917.19;5004747;28;50916;-69
2022/06/22 02:58:58;;;;;;;;;19.50;18.75;;;;;-147.17;100.00;-15917.19;5005764;28;52332;-67
2022/06/22 03:01:28;;;;;;;;;22.75;22.25;;;;;-147.17;100.00;-15917.19;5010043;28;53011;-68
2022/06/22 03:03:59;;;;;;;;;16.75;16.00;;;;;-147.17;100.00;-15917.19;5012613;28;51166;-67
2022/06/22 03:06:31;;;;;;;;;17.75;17.50;;;;;-147.17;100.00;-15917.19;4999126;28;51057;-68
2022/06/22 03:09:00;;;;;;;;;18.25;16.50;;;;;-147.17;100.00;-15917.19;5005586;28;51250;-68
2022/06/22 03:11:26;;;;;;;;;17.00;15.75;;;;;-147.17;100.00;-15917.19;5001947;28;53198;-68
2022/06/22 03:13:56;;;;;;;;;17.50;17.00;;;;;-147.17;100.00;-15917.19;4997302;28;51076;-68
2022/06/22 03:16:32;;;;;;;;;21.25;20.00;;;;;-147.17;100.00;-15917.19;5005801;28;51055;-67
2022/06/22 03:19:04;;;;;;;;;19.25;19.25;;;;;-147.17;100.00;-15917.19;5010199;28;51326;-67
2022/06/22 03:21:31;;;;;;;;;19.50;18.75;;;;;-147.17;100.00;-15917.19;5000507;28;53842;-67
2022/06/22 03:24:14;;;;;;;;;20.25;19.25;;;;;-147.17;100.00;-15917.19;5008356;28;51075;-67
2022/06/22 03:26:44;;;;;;;;;19.75;19.75;;;;;-147.17;100.00;-15917.19;5004926;28;51048;-67
2022/06/22 03:29:22;;;;;;;;;19.25;19.00;;;;;-147.17;100.00;-15917.19;5013539;28;51164;-67
2022/06/22 03:31:59;;;;;;;;;20.25;19.75;;;;;-147.17;100.00;-15917.19;5013212;28;51156;-67
2022/06/22 03:34:30;;;;;;;;;18.00;17.00;;;;;-147.17;100.00;-15917.19;5009528;28;51070;-66
2022/06/22 03:37:09;;;;;;;;;24.75;22.75;;;;;-147.17;100.00;-15917.19;5008576;28;51159;-67
2022/06/22 03:39:41;;;;;;;;;16.67;16.67;;;;;-147.17;100.00;-15917.19;5004926;28;51147;-66
2022/06/22 03:42:17;;;;;;;;;20.50;19.75;;;;;-147.17;100.00;-15917.19;5010339;28;52101;-66
2022/06/22 03:44:51;;;;;;;;;18.00;17.50;;;;;-147.17;100.00;-15917.19;4993764;28;51153;-66
2022/06/22 03:47:35;;;;;;;;;15.33;15.33;;;;;-147.17;100.00;-15917.19;5001415;28;51172;-66
2022/06/22 03:50:06;;;;;;;;;19.00;17.75;;;;;-147.17;100.00;-15917.19;5009069;28;51100;-67
2022/06/22 03:52:45;;;;;;;;;18.50;17.75;;;;;-147.17;100.00;-15917.19;5006489;28;51142;-67
2022/06/22 03:55:16;;;;;;;;;19.25;18.50;;;;;-147.17;100.00;-15917.19;4995988;28;51191;-67
2022/06/22 03:57:45;;;;;;;;;20.75;19.25;;;;;-147.17;100.00;-15917.19;5006798;28;51101;-67
2022/06/22 04:00:14;;;;;;;;;19.25;18.75;;;;;-147.17;100.00;-15917.19;5010766;28;51128;-67
2022/06/22 04:02:40;;;;;;;;;19.00;18.00;;;;;-147.17;100.00;-15917.19;5009715;28;51971;-67
2022/06/22 04:05:11;;;;;;;;;17.75;17.50;;;;;-147.17;100.00;-15917.19;5009467;28;51055;-67
2022/06/22 04:07:39;;;;;;;;;20.00;18.50;;;;;-147.17;100.00;-15917.19;5011176;28;51009;-67
2022/06/22 04:10:12;;;;;;;;;18.25;18.25;;;;;-147.17;100.00;-15917.19;5008958;28;51113;-67
2022/06/22 04:12:45;;;;;;;;;21.25;21.25;;;;;-147.17;100.00;-15917.19;5000187;28;51693;-67
2022/06/22 04:15:27;;;;;;;;;17.75;17.75;;;;;-147.17;100.00;-15917.19;4993779;28;51159;-67
2022/06/22 04:17:58;;;;;;;;;19.75;18.00;;;;;-147.17;100.00;-15917.19;4998539;28;51023;-67
2022/06/22 04:20:50;;;;;;;;;19.00;19.00;;;;;-147.17;100.00;-15917.19;5007226;28;51047;-67
2022/06/22 04:23:23;;;;;;;;;20.75;20.75;;;;;-147.17;100.00;-15917.19;5008963;28;52220;-67
2022/06/22 04:25:52;;;;;;;;;19.25;18.25;;;;;-147.17;100.00;-15917.19;4998772;28;50966;-67
2022/06/22 04:28:19;;;;;;;;;20.25;18.50;;;;;-147.17;100.00;-15917.19;5011278;28;51061;-67
2022/06/22 04:30:49;;;;;;;;;22.50;21.50;;;;;-147.17;100.00;-15917.19;5009987;28;51373;-67
2022/06/22 04:33:30;;;;;;;;;19.75;18.25;;;;;-147.17;100.00;-15917.19;5005635;28;51803;-67
2022/06/22 04:36:03;;;;;;;;;20.00;18.75;;;;;-147.17;100.00;-15917.19;5004518;28;51175;-67
2022/06/22 04:38:37;;;;;;;;;19.00;19.00;;;;;-147.17;100.00;-15917.19;5002956;28;51281;-67
2022/06/22 04:41:15;;;;;;;;;20.75;20.50;;;;;-147.17;100.00;-15917.19;5006697;28;51358;-67
2022/06/22 04:43:41;;;;;;;;;21.00;20.00;;;;;-147.17;100.00;-15917.19;5010049;28;51911;-67
2022/06/22 04:46:14;;;;;;;;;18.25;18.25;;;;;-147.17;100.00;-15917.19;5011265;28;50917;-67
2022/06/22 04:48:46;;;;;;;;;21.00;20.00;;;;;-147.17;100.00;-15917.19;5017928;28;51199;-67
2022/06/22 04:51:28;;;;;;;;;19.25;19.00;;;;;-147.17;100.00;-15917.19;5001787;28;52333;-67
2022/06/22 04:53:53;;;;;;;;;22.25;20.25;;;;;-147.17;100.00;-15917.19;5005564;28;53408;-67
2022/06/22 04:56:42;;;;;;;;;20.75;19.25;;;;;-147.17;100.00;-15917.19;5001335;28;51067;-67
2022/06/22 04:59:12;;;;;;;;;23.25;22.25;;;;;-147.17;100.00;-15917.19;5011189;28;51193;-67
2022/06/22 05:01:42;;;;;;;;;20.00;20.00;;;;;-147.17;100.00;-15917.19;5011365;28;51194;-67
2022/06/22 05:04:16;;;;;;;;;21.75;21.00;;;;;-147.17;100.00;-15917.19;4998288;28;51669;-67
2022/06/22 05:07:01;;;;;;;;;21.75;21.00;;;;;-147.17;100.00;-15917.19;5000089;28;51044;-67
2022/06/22 05:09:46;;;;;;;;;18.50;18.50;;;;;-147.17;100.00;-15917.19;5006464;28;51033;-67
2022/06/22 05:12:16;;;;;;;;;20.00;19.25;;;;;-147.17;100.00;-15917.19;5010996;28;51247;-68
2022/06/22 05:14:43;;;;;;;;;21.00;19.25;;;;;-147.17;100.00;-15917.19;5009127;28;51001;-67
2022/06/22 05:17:22;;;;;;;;;21.00;20.50;;;;;-147.17;100.00;-15917.19;5009992;28;51160;-67
2022/06/22 05:19:58;;;;;;;;;19.00;18.50;;;;;-147.17;100.00;-15917.19;5000519;28;50954;-67
2022/06/22 05:22:23;;;;;;;;;23.75;23.00;;;;;-147.17;100.00;-15917.19;4995126;28;51247;-68
2022/06/22 05:24:55;;;;;;;;;21.00;20.25;;;;;-147.17;100.00;-15917.19;5010287;28;52765;-68
2022/06/22 05:27:26;;;;;;;;;23.00;21.50;;;;;-147.17;100.00;-15917.19;5011889;28;51224;-68
2022/06/22 05:30:03;;;;;;;;;22.25;22.25;;;;;-147.17;100.00;-15917.19;5010927;28;51072;-67
2022/06/22 05:32:58;;;;;;;;;23.00;22.50;;;;;-147.17;100.00;-15917.19;5009258;28;51243;-67
2022/06/22 05:35:39;;;;;;;;;22.75;20.25;;;;;-147.17;100.00;-15917.19;5006279;28;52123;-68
2022/06/22 05:38:07;;;;;;;;;21.00;20.50;;;;;-147.17;100.00;-15917.19;5002848;28;51134;-68
2022/06/22 05:40:35;;;;;;;;;21.00;19.50;;;;;-147.17;100.00;-15917.19;4990666;28;51541;-68
2022/06/22 05:43:02;;;;;;;;;21.75;21.00;;;;;-147.17;100.00;-15917.19;4996851;28;51518;-68
2022/06/22 05:45:33;;;;;;;;;20.75;20.50;;;;;-147.17;100.00;-15917.19;5004503;28;53002;-68
2022/06/22 05:47:58;;;;;;;;;24.25;24.00;;;;;-147.17;100.00;-15917.19;5008639;28;51174;-68
2022/06/22 05:50:35;;;;;;;;;23.75;23.00;;;;;-147.17;100.00;-15917.19;5008657;28;51187;-68
2022/06/22 05:53:13;;;;;;;;;26.00;24.50;;;;;-147.17;100.00;-15917.19;5004358;28;51163;-67
2022/06/22 05:55:57;;;;;;;;;21.75;21.50;;;;;-147.17;100.00;-15917.19;5005876;28;51108;-68
2022/06/22 05:58:37;;;;;;;;;20.75;20.75;;;;;-147.17;100.00;-15917.19;5007174;28;51317;-67
2022/06/22 06:01:11;;;;;;;;;24.50;21.00;;;;;-147.17;100.00;-15917.19;5006380;28;51203;-67
2022/06/22 06:03:48;;;;;;;;;21.00;20.75;;;;;-147.17;100.00;-15917.19;5000574;28;52199;-67
2022/06/22 06:06:19;;;;;;;;;22.25;20.50;;;;;-147.17;100.00;-15917.19;5007182;28;51068;-68
2022/06/22 06:09:00;;;;;;;;;22.75;22.50;;;;;-147.17;100.00;-15917.19;5017901;28;51104;-68
2022/06/22 06:11:33;;;;;;;;;24.75;23.75;;;;;-147.17;100.00;-15917.19;5002436;28;52542;-68
2022/06/22 06:14:03;;;;;;;;;22.75;21.75;;;;;-147.17;100.00;-15917.19;5007482;28;51080;-68
2022/06/22 06:16:49;;;;;;;;;24.50;21.75;;;;;-147.17;100.00;-15917.19;5012544;28;53809;-69
2022/06/22 06:19:21;;;;;;;;;20.50;20.50;;;;;-147.17;100.00;-15917.19;5007643;28;51262;-69
2022/06/22 06:21:50;;;;;;;;;20.75;20.00;;;;;-147.17;100.00;-15917.19;5006480;28;51126;-70
2022/06/22 06:24:19;;;;;;;;;18.00;18.00;;;;;-147.17;100.00;-15917.19;5009479;28;51023;-70
2022/06/22 06:29:47;;;;;;;;;23.50;23.50;;;;;-147.17;100.00;-15917.19;5008293;28;51108;-70
2022/06/22 06:32:35;;;;;;;;;26.50;25.75;;;;;-147.17;100.00;-15917.19;5001534;28;51507;-69
2022/06/22 06:35:11;;;;;;;;;24.25;23.75;;;;;-147.17;100.00;-15917.19;5005213;28;51219;-70
2022/06/22 06:37:39;;;;;;;;;24.00;23.50;;;;;-147.17;100.00;-15917.19;5007369;28;51507;-71
2022/06/22 06:40:08;;;;;;;;;23.75;23.25;;;;;-147.17;100.00;-15917.19;5009048;28;51187;-68
2022/06/22 06:42:49;;;;;;;;;23.00;22.50;;;;;-147.17;100.00;-15917.19;5005566;28;51533;-70
2022/06/22 06:45:19;;;;;;;;;24.00;23.25;;;;;-147.17;100.00;-15917.19;5006855;28;51064;-70
2022/06/22 06:47:49;;;;;;;;;26.50;24.75;;;;;-147.17;100.00;-15917.19;5000182;28;51716;-70
2022/06/22 06:50:32;;;;;;;;;22.75;20.50;;;;;-147.17;100.00;-15917.19;5011158;28;51154;-68
2022/06/22 06:53:19;;;;;;;;;23.25;19.25;;;;;-147.17;100.00;-15917.19;5004803;28;51198;-68
2022/06/22 06:55:54;;;;;;;;;24.50;22.75;;;;;-147.17;100.00;-15917.19;5005817;28;51153;-68
2022/06/22 06:58:57;;;;;;;;;22.50;22.00;;;;;-147.17;100.00;-15917.19;5000915;28;52109;-67
2022/06/22 07:01:27;;;;;;;;;23.25;22.25;;;;;-147.17;100.00;-15917.19;4987067;28;51361;-68
2022/06/22 07:03:58;;;;;;;;;25.75;24.75;;;;;-147.17;100.00;-15917.19;5003113;28;51167;-68
2022/06/22 07:06:27;;;;;;;;;24.00;23.00;;;;;-147.17;100.00;-15917.19;5003656;28;51291;-69
2022/06/22 07:08:59;;;;;;;;;24.25;23.50;;;;;-147.17;100.00;-15917.19;5001367;28;52686;-67
2022/06/22 07:11:36;;;;;;;;;23.00;22.50;;;;;-147.17;100.00;-15917.19;5002838;28;51228;-69
2022/06/22 07:14:41;;;;;;;;;24.00;24.00;;;;;-147.17;100.00;-15917.19;5010661;28;51132;-69
2022/06/22 07:17:11;;;;;;;;;26.00;22.50;;;;;-147.17;100.00;-15917.19;4987216;28;51023;-69
2022/06/22 07:19:49;;;;;;;;;19.75;18.75;;;;;-147.17;100.00;-15917.19;5013188;28;51153;-69
2022/06/22 07:22:21;;;;;;;;;23.75;21.75;;;;;-147.17;100.00;-15917.19;5010897;28;51192;-69
2022/06/22 07:25:01;;;;;;;;;18.50;17.75;;;;;-147.17;100.00;-15917.19;5008944;28;51208;-69
2022/06/22 07:27:39;;;;;;;;;24.25;22.00;;;;;-147.17;100.00;-15917.19;5013124;28;51195;-68
2022/06/22 07:30:13;;;;;;;;;19.50;19.25;;;;;-147.17;100.00;-15917.19;5023677;28;53901;-67
2022/06/22 07:32:44;;;;;;;;;20.00;20.00;;;;;-147.17;100.00;-15917.19;5006384;28;51759;-68
2022/06/22 07:35:25;;;;;;;;;76.75;61.25;;;;;-147.17;100.00;-15917.19;5008185;28;51225;-68
2022/06/22 07:38:05;;;;;;;;;22.75;20.50;;;;;-147.17;100.00;-15917.19;5003143;28;52564;-68
2022/06/22 07:40:33;;;;;;;;;22.75;22.25;;;;;-147.17;100.00;-15917.19;5004281;28;51275;-67
2022/06/22 07:42:59;;;;;;;;;24.50;23.50;;;;;-147.17;100.00;-15917.19;5004796;28;51056;-69
2022/06/22 07:45:28;;;;;;;;;23.00;23.00;;;;;-147.17;100.00;-15917.19;5011086;28;51193;-67
2022/06/22 07:48:07;;;;;;;;;22.50;21.50;;;;;-147.17;100.00;-15917.19;5008862;28;51004;-68
2022/06/22 07:50:41;;;;;;;;;23.75;22.25;;;;;-147.17;100.00;-15917.19;5011070;28;50968;-68
2022/06/22 07:53:23;;;;;;;;;22.00;21.25;;;;;-147.17;100.00;-15917.19;5009794;28;51033;-69
2022/06/22 07:55:59;;;;;;;;;23.75;23.75;;;;;-147.17;100.00;-15917.19;4985266;28;51189;-68
2022/06/22 07:58:35;;;;;;;;;22.75;22.25;;;;;-147.17;100.00;-15917.19;5008836;28;52535;-68
2022/06/22 08:01:08;;;;;;;;;24.25;22.50;;;;;-147.17;100.00;-15917.19;5003959;28;52596;-67
2022/06/22 08:03:38;;;;;;;;;21.75;21.75;;;;;-147.17;100.00;-15917.19;5008617;28;51172;-69
2022/06/22 08:06:11;;;;;;;;;17.25;17.25;;;;;-147.17;100.00;-15917.19;5010630;28;51090;-67
2022/06/22 08:08:55;;;;;;;;;19.75;19.75;;;;;-147.17;100.00;-15917.19;5003573;28;51175;-68
2022/06/22 08:11:34;;;;;;;;;26.25;24.50;;;;;-147.17;100.00;-15917.19;5008277;28;52857;-67
2022/06/22 08:14:18;;;;;;;;;23.33;20.33;;;;;-147.17;100.00;-15917.19;5006298;28;50897;-68
2022/06/22 08:16:49;;;;;;;;;22.00;21.00;;;;;-147.17;100.00;-15917.19;5008452;28;51223;-67
2022/06/22 08:19:15;;;;;;;;;21.75;21.75;;;;;-147.17;100.00;-15917.19;5009367;28;51231;-68
2022/06/22 08:21:46;;;;;;;;;19.25;18.75;;;;;-147.17;100.00;-15917.19;5003985;28;51223;-67
2022/06/22 08:24:15;;;;;;;;;20.25;19.50;;;;;-147.17;100.00;-15917.19;5006928;28;51211;-67
2022/06/22 08:26:42;;;;;;;;;18.75;18.50;;;;;-147.17;100.00;-15917.19;5002768;28;51240;-68
2022/06/22 08:29:08;;;;;;;;;25.50;23.25;;;;;-147.17;100.00;-15917.19;5010882;28;51307;-67
2022/06/22 08:31:51;;;;;;;;;18.00;17.00;;;;;-147.17;100.00;-15917.19;5009455;28;51263;-69
2022/06/22 08:34:23;;;;;;;;;20.75;20.50;;;;;-147.17;100.00;-15917.19;5004517;28;51079;-68
2022/06/22 08:36:55;;;;;;;;;20.75;20.50;;;;;-147.17;100.00;-15917.19;5007697;28;51829;-69
2022/06/22 08:39:32;;;;;;;;;23.00;20.67;;;;;-147.17;100.00;-15917.19;5009524;28;51272;-68
2022/06/22 08:42:07;;;;;;;;;20.00;19.33;;;;;-147.17;100.00;-15917.19;4999681;28;51805;-68
2022/06/22 08:44:51;;;;;;;;;19.33;19.33;;;;;-147.17;100.00;-15917.19;5008340;28;51050;-68
2022/06/22 08:47:38;;;;;;;;;19.33;19.33;;;;;-147.17;100.00;-15917.19;4995585;28;51189;-68
2022/06/22 08:50:51;;;;;;;;;21.67;20.67;;;;;-147.17;100.00;-15917.19;5004640;28;50932;-68
2022/06/22 08:53:52;;;;;;;;;20.00;18.33;;;;;-147.17;100.00;-15917.19;5005283;28;53339;-67
2022/06/22 08:56:31;;;;;;;;;18.33;18.33;;;;;-147.17;100.00;-15917.19;4993938;28;51326;-68
2022/06/22 08:59:39;;;;;;;;;19.00;18.67;;;;;-147.17;100.00;-15917.19;5005376;28;51044;-68
2022/06/22 09:02:26;;;;;;;;;21.00;18.33;;;;;-147.17;100.00;-15917.19;5010628;28;51078;-68
2022/06/22 09:05:03;;;;;;;;;20.00;19.67;;;;;-147.17;100.00;-15917.19;5003463;28;53297;-68
2022/06/22 09:07:34;;;;;;;;;10.00;9.67;;;;;-147.17;100.00;-15917.19;5010401;28;51242;-65
2022/06/22 09:10:29;;;;;;;;;18.50;18.25;;;;;-147.17;100.00;-15917.19;5009288;28;51171;-69
2022/06/22 09:13:18;;;;;;;;;21.33;20.00;;;;;-147.17;100.00;-15917.19;5000034;28;51544;-70
2022/06/22 09:16:11;;;;;;;;;18.67;18.33;;;;;-147.17;100.00;-15917.19;5011704;28;51159;-70
2022/06/22 09:18:55;;;;;;;;;21.00;21.00;;;;;-147.17;100.00;-15917.19;5007616;28;51064;-70
2022/06/22 09:21:38;;;;;;;;;19.33;18.67;;;;;-147.17;100.00;-15917.19;4999417;28;51372;-72
2022/06/22 09:24:20;;;;;;;;;20.00;19.67;;;;;-147.17;100.00;-15917.19;5005733;28;51273;-70
2022/06/22 09:27:20;;;;;;;;;18.67;18.67;;;;;-147.17;100.00;-15917.19;5009624;28;51313;-70
2022/06/22 09:30:28;;;;;;;;;21.00;20.25;;;;;-147.17;100.00;-15917.19;4976265;28;51164;-71
2022/06/22 09:33:46;;;;;;;;;19.33;17.67;;;;;-147.17;100.00;-15917.19;4999142;28;51064;-70
2022/06/22 09:36:32;;;;;;;;;18.67;18.67;;;;;-147.17;100.00;-15917.19;4954349;28;51527;-71
2022/06/22 09:39:22;;;;;;;;;19.33;19.33;;;;;-147.17;100.00;-15917.19;4998715;28;52064;-71
2022/06/22 09:42:14;;;;;;;;;20.33;20.00;;;;;-147.17;100.00;-15917.19;5012109;28;50898;-70
2022/06/22 09:45:10;;;;;;;;;20.67;19.67;;;;;-147.17;100.00;-15917.19;5011819;28;50977;-70
2022/06/22 09:48:14;;;;;;;;;22.00;21.67;;;;;-147.17;100.00;-15917.19;5008435;28;51484;-70
2022/06/22 09:50:57;;;;;;;;;19.00;17.33;;;;;-147.17;100.00;-15917.19;5004862;28;51992;-71
2022/06/22 09:54:04;;;;;;;;;22.75;21.00;;;;;-147.17;100.00;-15917.19;5007168;28;51193;-70
2022/06/22 09:56:41;;;;;;;;;23.33;22.33;;;;;-147.17;100.00;-15917.19;4998319;28;51120;-71
2022/06/22 09:59:09;;;;;;;;;17.33;17.33;;;;;-147.17;100.00;-15917.19;5013781;28;51311;-71
2022/06/22 10:02:15;;;;;;;;;20.33;20.33;;;;;-147.17;100.00;-15917.19;5014931;28;51922;-72
2022/06/22 10:05:02;;;;;;;;;17.33;17.00;;;;;-147.17;100.00;-15917.19;5011225;28;51130;-71
2022/06/22 10:07:46;;;;;;;;;22.33;20.67;;;;;-147.17;100.00;-15917.19;5001225;28;51539;-70
2022/06/22 10:10:17;;;;;;;;;17.33;17.33;;;;;-147.17;100.00;-15917.19;5005423;28;51390;-70
2022/06/22 10:13:02;;;;;;;;;18.33;18.00;;;;;-147.17;100.00;-15917.19;5008746;28;51141;-69
2022/06/22 10:15:57;;;;;;;;;17.67;17.33;;;;;-147.17;100.00;-15917.19;5011265;28;51102;-70
2022/06/22 10:18:47;;;;;;;;;21.67;20.67;;;;;-147.17;100.00;-15917.19;5013686;28;51218;-71
2022/06/22 10:21:49;;;;;;;;;18.67;18.67;;;;;-147.17;100.00;-15917.19;5007399;28;51250;-71
2022/06/22 10:24:31;;;;;;;;;18.67;18.33;;;;;-147.17;100.00;-15917.19;5010613;28;51898;-70
2022/06/22 10:26:59;;;;;;;;;17.67;16.67;;;;;-147.17;100.00;-15917.19;5011086;28;52888;-69
2022/06/22 10:29:43;;;;;;;;;22.00;20.67;;;;;-147.17;100.00;-15917.19;5001949;28;51243;-73
2022/06/22 10:32:31;;;;;;;;;22.33;21.67;;;;;-147.17;100.00;-15917.19;5012782;28;51482;-71
2022/06/22 10:35:07;;;;;;;;;22.33;21.67;;;;;-147.17;100.00;-15917.19;5011410;28;52812;-73
2022/06/22 10:38:17;;;;;;;;;21.00;21.00;;;;;-147.17;100.00;-15917.19;5008194;28;51191;-73
2022/06/22 10:46:59;;;;;;;;;18.00;17.00;;;;;-147.17;100.00;-15917.19;5007643;28;51524;-74
2022/06/22 10:49:48;;;;;;;;;21.00;21.00;;;;;-147.17;100.00;-15917.19;5002552;28;51480;-74
2022/06/22 10:52:32;;;;;;;;;21.00;18.67;;;;;-147.17;100.00;-15917.19;5010923;28;51132;-74
2022/06/22 10:55:10;;;;;;;;;21.25;21.25;;;;;-147.17;100.00;-15917.19;5005310;28;50916;-73
2022/06/22 10:58:19;;;;;;;;;18.67;18.67;;;;;-147.17;100.00;-15917.19;5011720;28;50937;-73
2022/06/22 11:01:01;;;;;;;;;20.33;19.67;;;;;-147.17;100.00;-15917.19;5018557;28;51085;-74
2022/06/22 11:03:48;;;;;;;;;21.00;19.33;;;;;-147.17;100.00;-15917.19;4998691;28;51278;-74
2022/06/22 11:06:34;;;;;;;;;21.67;20.00;;;;;-147.17;100.00;-15915.72;5004946;28;51177;-73
2022/06/22 11:09:06;;;;;;;;;20.67;19.67;;;;;-147.17;100.00;-15915.72;5011617;28;51713;-73
2022/06/22 11:12:12;;;;;;;;;18.00;17.33;;;;;-147.17;100.00;-15915.72;5001243;28;51088;-73
2022/06/22 11:15:25;;;;;;;;;19.33;18.33;;;;;-147.17;100.00;-15915.72;5004768;28;51009;-73
2022/06/22 11:17:53;;;;;;;;;14.67;13.67;;;;;-147.17;100.00;-15915.72;4992714;28;51100;-73
2022/06/22 11:20:18;;;;;;;;;11.00;11.00;;;;;-147.17;100.00;-15915.72;4998184;28;51947;-75
2022/06/22 11:23:11;;;;;;;;;15.00;14.00;;;;;-147.17;100.00;-15915.72;5002103;28;51176;-72
2022/06/22 11:32:21;;;;;;;;;15.67;14.67;;;;;-147.17;100.00;-15915.72;5013246;28;51482;-73
2022/06/22 11:35:10;;;;;;;;;13.50;13.50;;;;;-147.17;100.00;-15917.19;5001898;28;51127;-73
2022/06/22 11:37:54;;;;;;;;;19.67;18.00;;;;;-147.17;100.00;-15917.19;5011077;28;50948;-72
2022/06/22 11:40:47;;;;;;;;;15.00;14.67;;;;;-147.17;100.00;-15917.19;5012139;28;51238;-73
2022/06/22 11:43:39;;;;;;;;;16.00;16.00;;;;;-147.17;100.00;-15917.19;4991829;28;53003;-74
2022/06/22 11:46:30;;;;;;;;;16.00;15.00;;;;;-147.17;100.00;-15917.19;5002034;28;51125;-74
2022/06/22 11:49:20;;;;;;;;;16.00;15.00;;;;;-147.17;100.00;-15917.19;5012723;28;51065;-73
2022/06/22 11:52:00;;;;;;;;;16.33;16.33;;;;;-147.17;100.00;-15917.19;4997657;28;51330;-72
2022/06/22 11:54:37;;;;;;;;;15.67;14.67;;;;;-147.17;100.00;-15917.19;4992889;28;52227;-72